createdAt,value
2022-12-07T00:04:37.051Z,98168.11
2022-12-07T00:09:42.634Z,98167.63
2022-12-07T00:14:47.820Z,98169.95
2022-12-07T00:19:49.482Z,98166.48
2022-12-07T00:24:51.260Z,98163.95
2022-12-07T00:29:52.946Z,98163.34
2022-12-07T00:34:54.570Z,98159.13
2022-12-07T00:39:56.203Z,98157.05
2022-12-07T00:44:57.885Z,98154.02
2022-12-07T00:49:59.946Z,98143.61
2022-12-07T00:55:01.880Z,98138.21
2022-12-07T01:00:04.325Z,98136.30
2022-12-07T01:05:06.452Z,98135.33
2022-12-07T01:10:08.551Z,98125.45
2022-12-07T01:15:10.573Z,98124.45
2022-12-07T01:20:13.284Z,98124.39
2022-12-07T01:25:14.916Z,98119.48
2022-12-07T01:30:16.705Z,98116.95
2022-12-07T01:35:18.339Z,98120.14
2022-12-07T01:40:19.994Z,98124.02
2022-12-07T01:45:39.751Z,98125.33
2022-12-07T01:50:43.719Z,98125.48
2022-12-07T01:55:48.585Z,98120.41
2022-12-07T02:00:50.430Z,98125.49
2022-12-07T02:05:53.168Z,98120.97
2022-12-07T02:10:55.961Z,98118.83
2022-12-07T02:16:18.752Z,98118.69
2022-12-07T02:21:40.445Z,98119.41
2022-12-07T02:27:11.530Z,98119.33
2022-12-07T02:32:38.038Z,98125.24
2022-12-07T02:38:11.404Z,98124.67
2022-12-07T02:43:21.584Z,98120.10
2022-12-07T02:48:24.185Z,98115.79
2022-12-07T02:53:37.549Z,98107.60
2022-12-07T02:59:05.744Z,98109.73
2022-12-07T03:04:34.616Z,98114.68
2022-12-07T03:09:52.446Z,98112.17
2022-12-07T03:15:02.018Z,98104.89
2022-12-07T03:20:07.170Z,98106.23
2022-12-07T03:25:12.797Z,98103.40
2022-12-07T03:30:21.912Z,98093.74
2022-12-07T03:35:31.433Z,98092.85
2022-12-07T03:40:41.295Z,98095.04
2022-12-07T03:45:48.105Z,98095.95
2022-12-07T03:50:55.991Z,98097.35
2022-12-07T03:55:59.173Z,98095.23
2022-12-07T04:01:01.037Z,98095.70
2022-12-07T04:06:02.858Z,98095.27
2022-12-07T04:11:04.580Z,98098.39
2022-12-07T04:16:06.428Z,98094.31
2022-12-07T04:21:08.291Z,98093.17
2022-12-07T04:26:10.107Z,98094.04
2022-12-07T04:31:11.826Z,98092.86
2022-12-07T04:36:13.651Z,98090.29
2022-12-07T04:41:15.401Z,98095.68
2022-12-07T04:46:17.157Z,98087.48
2022-12-07T04:51:25.394Z,98092.08
2022-12-07T04:56:27.148Z,98097.66
2022-12-07T05:01:29.088Z,98095.40
2022-12-07T05:06:30.753Z,98096.58
2022-12-07T05:11:41.849Z,98099.84
2022-12-07T05:16:45.473Z,98099.92
2022-12-07T05:21:47.499Z,98101.15
2022-12-07T05:26:49.187Z,98100.17
2022-12-07T05:31:50.861Z,98099.58
2022-12-07T05:36:52.624Z,98098.36
2022-12-07T05:42:13.158Z,98096.13
2022-12-07T05:47:16.175Z,98101.48
2022-12-07T05:52:17.933Z,98098.05
2022-12-07T05:57:20.249Z,98096.81
2022-12-07T06:02:21.941Z,98098.83
2022-12-07T06:07:23.674Z,98102.97
2022-12-07T06:12:39.757Z,98103.13
2022-12-07T06:17:41.831Z,98102.15
2022-12-07T06:22:43.477Z,98108.27
2022-12-07T06:27:45.125Z,98118.44
2022-12-07T06:32:46.764Z,98120.48
2022-12-07T06:37:48.410Z,98123.89
2022-12-07T06:42:50.064Z,98124.96
2022-12-07T06:47:51.835Z,98125.60
2022-12-07T06:52:53.943Z,98127.40
2022-12-07T06:57:55.591Z,98132.39
2022-12-07T07:02:57.313Z,98132.92
2022-12-07T07:08:21.346Z,98132.99
2022-12-07T07:13:20.784Z,98134.69
2022-12-07T07:18:23.036Z,98140.13
2022-12-07T07:23:24.848Z,98133.30
2022-12-07T07:28:26.550Z,98134.78
2022-12-07T07:33:28.305Z,98131.40
2022-12-07T07:38:30.045Z,98130.34
2022-12-07T07:43:31.813Z,98127.86
2022-12-07T07:48:33.489Z,98128.61
2022-12-07T07:53:35.544Z,98123.30
2022-12-07T07:58:37.280Z,98126.92
2022-12-07T08:03:38.973Z,98132.59
2022-12-07T08:08:40.711Z,98136.75
2022-12-07T08:13:42.338Z,98136.50
2022-12-07T08:18:44.588Z,98142.70
2022-12-07T08:23:46.395Z,98154.41
2022-12-07T08:28:48.139Z,98157.77
2022-12-07T08:33:49.920Z,98160.64
2022-12-07T08:39:29.206Z,98165.77
2022-12-07T08:44:13.591Z,98165.45
2022-12-07T08:49:24.939Z,98164.48
2022-12-07T08:54:27.612Z,98166.98
2022-12-07T08:59:29.955Z,98166.27
2022-12-07T09:04:31.643Z,98159.00
2022-12-07T09:09:33.913Z,98155.87
2022-12-07T09:14:35.887Z,98150.24
2022-12-07T09:19:38.378Z,98146.36
2022-12-07T09:24:40.119Z,98140.87
2022-12-07T09:29:41.795Z,98132.89
2022-12-07T09:34:43.527Z,98128.17
2022-12-07T09:40:01.874Z,98118.23
2022-12-07T09:45:07.839Z,98111.65
2022-12-07T09:50:20.034Z,98108.14
2022-12-07T09:55:30.444Z,98100.06
2022-12-07T10:00:32.135Z,98098.30
2022-12-07T10:05:39.354Z,98091.89
2022-12-07T10:10:41.255Z,98083.82
2022-12-07T10:15:50.896Z,98080.36
2022-12-07T10:21:08.562Z,98067.81
2022-12-07T10:26:33.060Z,98062.31
2022-12-07T10:31:40.509Z,98063.74
2022-12-07T10:36:42.198Z,98062.05
2022-12-07T10:41:58.856Z,98062.02
2022-12-07T10:47:21.373Z,98056.48
2022-12-07T10:52:39.646Z,98059.75
2022-12-07T10:58:22.993Z,98057.89
2022-12-07T11:03:46.137Z,98050.29
2022-12-07T11:09:06.624Z,98050.55
2022-12-07T11:14:42.665Z,98046.58
2022-12-07T11:20:01.225Z,98039.74
2022-12-07T11:25:14.305Z,98038.26
2022-12-07T11:30:49.504Z,98032.02
2022-12-07T11:36:24.450Z,98013.98
2022-12-07T11:41:38.790Z,98008.80
2022-12-07T11:46:59.836Z,98012.11
2022-12-07T11:52:05.131Z,98016.30
2022-12-07T11:57:20.199Z,98016.05
2022-12-07T12:02:29.677Z,98014.15
2022-12-07T12:18:49.872Z,98020.35
2022-12-07T12:24:00.536Z,98017.64
2022-12-07T12:29:09.774Z,98003.59
2022-12-07T12:35:01.030Z,97996.64
2022-12-07T12:40:17.805Z,97992.25
2022-12-07T12:45:19.640Z,97983.34
2022-12-07T12:50:25.673Z,97984.44
2022-12-07T12:55:45.894Z,97991.02
2022-12-07T13:00:49.946Z,97988.02
2022-12-07T13:06:33.024Z,97993.02
2022-12-07T13:11:44.445Z,97998.34
2022-12-07T13:16:46.219Z,97999.73
2022-12-07T13:21:48.038Z,98004.33
2022-12-07T13:26:49.774Z,98006.64
2022-12-07T13:31:57.025Z,98008.02
2022-12-07T13:37:02.479Z,98006.70
2022-12-07T13:42:17.420Z,98015.77
2022-12-07T13:47:43.088Z,98017.89
2022-12-07T13:52:46.504Z,98024.48
2022-12-07T13:57:52.427Z,98032.28
2022-12-07T14:02:58.382Z,98031.02
2022-12-07T14:08:02.844Z,98035.29
2022-12-07T14:13:38.830Z,98034.52
2022-12-07T14:18:41.907Z,98041.02
2022-12-07T14:23:43.810Z,98046.48
2022-12-07T14:28:46.096Z,98051.79
2022-12-07T14:33:47.893Z,98056.64
2022-12-07T14:38:49.619Z,98050.41
2022-12-07T14:44:21.407Z,98052.83
2022-12-07T14:54:35.163Z,98064.47
2022-12-07T14:59:39.283Z,98066.27
2022-12-07T15:04:45.192Z,98070.50
2022-12-07T15:09:47.610Z,98074.70
2022-12-07T15:14:49.346Z,98076.81
2022-12-07T15:19:51.025Z,98080.31
2022-12-07T15:24:52.665Z,98076.46
2022-12-07T15:29:54.908Z,98073.17
2022-12-07T15:34:57.128Z,98069.55
2022-12-07T15:40:02.659Z,98071.52
2022-12-07T15:45:09.959Z,98069.84
2022-12-07T15:50:15.221Z,98072.48
2022-12-07T15:55:16.933Z,98071.30
2022-12-07T16:00:19.728Z,98082.94
2022-12-07T16:05:21.704Z,98086.12
2022-12-07T16:10:23.521Z,98081.62
2022-12-07T16:15:26.522Z,98083.52
2022-12-07T16:20:28.225Z,98081.52
2022-12-07T16:25:29.912Z,98075.23
2022-12-07T16:30:32.187Z,98076.63
2022-12-07T16:35:34.114Z,98077.84
2022-12-07T16:40:35.865Z,98079.77
2022-12-07T16:45:37.956Z,98079.02
2022-12-07T16:50:44.447Z,98080.69
2022-12-07T16:55:50.172Z,98078.65
2022-12-07T17:00:52.670Z,98073.44
2022-12-07T17:05:54.361Z,98080.80
2022-12-07T17:10:56.015Z,98077.41
2022-12-07T17:16:03.829Z,98077.66
2022-12-07T17:21:08.351Z,98074.15
2022-12-07T17:26:24.665Z,98072.52
2022-12-07T17:31:27.019Z,98072.35
2022-12-07T17:36:31.108Z,98075.88
2022-12-07T17:41:51.401Z,98071.90
2022-12-07T17:46:55.534Z,98074.23
2022-12-07T17:52:16.025Z,98073.86
2022-12-07T17:57:18.269Z,98078.02
2022-12-07T18:02:20.044Z,98077.73
2022-12-07T18:07:21.804Z,98075.43
2022-12-07T18:12:23.661Z,98074.08
2022-12-07T18:17:25.518Z,98070.77
2022-12-07T18:22:28.078Z,98065.49
2022-12-07T18:27:29.941Z,98061.64
2022-12-07T18:32:31.646Z,98062.13
2022-12-07T18:37:34.125Z,98062.96
2022-12-07T18:42:35.823Z,98061.80
2022-12-07T18:47:37.524Z,98065.06
2022-12-07T18:52:39.246Z,98074.00
2022-12-07T18:57:40.942Z,98072.04
2022-12-07T19:02:43.680Z,98076.84
2022-12-07T19:07:46.540Z,98077.69
2022-12-07T19:12:49.091Z,98083.67
2022-12-07T19:17:50.873Z,98085.33
2022-12-07T19:22:52.699Z,98090.27
2022-12-07T19:27:54.343Z,98094.42
2022-12-07T19:32:56.227Z,98098.00
2022-12-07T19:37:58.073Z,98109.87
2022-12-07T19:42:59.775Z,98110.70
2022-12-07T19:48:01.494Z,98114.56
2022-12-07T19:53:03.264Z,98120.73
2022-12-07T19:58:04.966Z,98122.38
2022-12-07T20:03:06.802Z,98120.52
2022-12-07T20:08:09.317Z,98118.52
2022-12-07T20:13:29.375Z,98121.44
2022-12-07T20:18:31.187Z,98116.30
2022-12-07T20:23:33.503Z,98116.59
2022-12-07T20:28:35.360Z,98115.33
2022-12-07T20:33:38.131Z,98117.70
2022-12-07T20:38:40.707Z,98116.10
2022-12-07T20:43:43.287Z,98114.45
2022-12-07T20:48:45.012Z,98113.34
2022-12-07T20:53:46.876Z,98110.23
2022-12-07T20:58:49.276Z,98112.55
2022-12-07T21:03:55.431Z,98113.98
2022-12-07T21:08:59.422Z,98107.89
2022-12-07T21:14:01.703Z,98108.19
2022-12-07T21:19:05.077Z,98106.42
2022-12-07T21:24:08.637Z,98104.13
2022-12-07T21:29:10.409Z,98104.58
2022-12-07T21:34:12.117Z,98102.48
2022-12-07T21:39:14.168Z,98106.73
2022-12-07T21:44:16.085Z,98109.71
2022-12-07T21:49:17.766Z,98113.52
2022-12-07T21:54:25.464Z,98114.88
2022-12-07T21:59:27.660Z,98114.98
2022-12-07T22:04:29.339Z,98113.86
2022-12-07T22:09:31.222Z,98112.00
2022-12-07T22:14:53.973Z,98113.58
2022-12-07T22:19:55.677Z,98114.32
2022-12-07T22:24:57.441Z,98121.55
2022-12-07T22:29:59.237Z,98120.41
2022-12-07T22:35:01.250Z,98121.30
2022-12-07T22:40:03.664Z,98123.69
2022-12-07T22:45:05.896Z,98126.66
2022-12-07T22:50:08.515Z,98125.34
2022-12-07T22:55:11.761Z,98129.27
2022-12-07T23:00:14.235Z,98122.40
2022-12-07T23:05:16.012Z,98120.30
2022-12-07T23:10:18.384Z,98119.84
2022-12-07T23:15:20.064Z,98114.61
2022-12-07T23:20:21.819Z,98115.08
2022-12-07T23:25:23.530Z,98112.97
2022-12-07T23:30:25.272Z,98109.27
2022-12-07T23:35:27.043Z,98114.67
2022-12-07T23:40:29.255Z,98113.23
2022-12-07T23:45:31.031Z,98107.95
2022-12-07T23:50:33.888Z,98107.39
2022-12-07T23:55:35.606Z,98105.95
